Time;durP1;ratioP1;P1;durP2;ratioP2;P2;SDS_P1;SDS_P2;PMS_P1;PMS_P2;Temp;Humidity;BMP_temperature;BMP_pressure;BME280_temperature;BME280_humidity;BME280_pressure;Samples;Min_cycle;Max_cycle;Signal;HPM_P1;HPM_P2
2022/01/19 00:00:09;;;;;;;0.73;0.73;;;;;;;7.09;30.33;99308.19;5093179;28;20040;-67
2022/01/19 00:02:36;;;;;;;0.80;0.80;;;;;;;6.84;30.30;99304.38;5092555;28;20151;-66
2022/01/19 00:05:03;;;;;;;0.80;0.80;;;;;;;7.03;29.50;99308.78;5074449;28;20132;-67
2022/01/19 00:07:29;;;;;;;0.90;0.90;;;;;;;6.76;29.88;99298.97;5091559;28;20135;-66
2022/01/19 00:09:55;;;;;;;0.70;0.70;;;;;;;6.66;29.80;99295.50;5091470;28;20077;-68
2022/01/19 00:12:21;;;;;;;0.80;0.80;;;;;;;6.73;30.51;99300.06;5091405;28;20446;-66
2022/01/19 00:14:47;;;;;;;0.77;0.70;;;;;;;6.75;29.57;99303.41;5092411;28;20056;-66
2022/01/19 00:17:12;;;;;;;0.67;0.67;;;;;;;6.76;29.70;99294.50;5092633;28;20476;-66
2022/01/19 00:19:38;;;;;;;0.90;0.90;;;;;;;6.68;30.41;99294.41;5108408;28;20044;-66
2022/01/19 00:22:04;;;;;;;0.77;0.77;;;;;;;6.73;30.34;99255.22;5057684;28;20040;-66
2022/01/19 00:24:30;;;;;;;0.70;0.70;;;;;;;6.49;30.65;99254.84;5092436;28;20079;-66
2022/01/19 00:26:56;;;;;;;0.90;0.90;;;;;;;6.75;29.81;99289.38;5074139;28;20071;-66
2022/01/19 00:29:22;;;;;;;0.90;0.90;;;;;;;6.75;29.80;99290.22;5090901;28;20040;-66
2022/01/19 00:31:47;;;;;;;0.60;0.60;;;;;;;6.82;29.71;99301.03;5091008;28;20059;-66
2022/01/19 00:34:13;;;;;;;1.03;0.93;;;;;;;6.81;29.84;99308.13;5092148;28;20044;-65
2022/01/19 00:36:39;;;;;;;0.70;0.70;;;;;;;6.79;29.59;99294.25;5092514;28;20040;-69
2022/01/19 00:39:04;;;;;;;0.60;0.60;;;;;;;6.82;29.57;99301.88;5057162;28;20934;-66
2022/01/19 00:41:30;;;;;;;0.90;0.90;;;;;;;6.84;29.10;99301.75;5107601;28;20047;-66
2022/01/19 00:43:56;;;;;;;0.60;0.60;;;;;;;6.64;30.20;99260.53;5090763;28;20479;-65
2022/01/19 00:46:22;;;;;;;0.90;0.90;;;;;;;6.81;30.23;99280.91;5090509;28;20089;-66
2022/01/19 00:48:47;;;;;;;1.07;0.97;;;;;;;6.87;29.41;99290.91;5090859;28;20135;-67
2022/01/19 00:51:13;;;;;;;0.60;0.60;;;;;;;6.83;29.46;99285.06;5090591;28;20139;-66
2022/01/19 00:53:39;;;;;;;0.90;0.90;;;;;;;6.69;29.86;99251.19;5091671;28;20066;-66
2022/01/19 00:56:05;;;;;;;0.80;0.80;;;;;;;6.85;29.32;99291.03;5090463;28;20101;-66
2022/01/19 00:58:30;;;;;;;0.90;0.90;;;;;;;6.91;29.68;99286.97;5073428;28;20062;-65
2022/01/19 01:00:56;;;;;;;0.70;0.70;;;;;;;6.98;29.91;99287.25;5091553;28;20119;-66
2022/01/19 01:03:22;;;;;;;0.67;0.67;;;;;;;6.93;29.13;99291.13;5090237;28;20052;-66
2022/01/19 01:05:48;;;;;;;0.70;0.70;;;;;;;6.63;30.47;99243.84;5091671;28;20074;-66
2022/01/19 01:08:13;;;;;;;0.73;0.73;;;;;;;6.93;29.76;99290.31;5073112;28;20047;-66
2022/01/19 01:10:43;;;;;;;0.70;0.70;;;;;;;6.72;29.92;99247.44;5056591;28;20088;-66
2022/01/19 01:13:30;;;;;;;0.70;0.70;;;;;;;7.28;29.91;99279.91;5073131;28;20036;-66
2022/01/19 01:18:25;;;;;;;0.90;0.90;;;;;;;6.80;28.61;99273.94;5056869;28;20094;-66
2022/01/19 01:20:57;;;;;;;0.70;0.70;;;;;;;7.16;29.46;99281.06;5073560;28;20071;-66
2022/01/19 01:23:25;;;;;;;0.73;0.73;;;;;;;7.20;29.43;99277.16;5090106;28;20048;-67
2022/01/19 01:25:54;;;;;;;0.98;0.98;;;;;;;6.94;30.21;99249.72;5073269;28;20079;-64
2022/01/19 01:28:21;;;;;;;0.80;0.80;;;;;;;6.98;29.96;99282.78;5073053;28;20052;-67
2022/01/19 01:30:47;;;;;;;0.73;0.73;;;;;;;6.93;30.63;99263.06;5090172;28;20036;-67
2022/01/19 01:33:14;;;;;;;0.90;0.90;;;;;;;6.66;30.00;99238.28;5089911;28;20101;-66
2022/01/19 01:35:40;;;;;;;0.70;0.70;;;;;;;6.86;29.31;99273.38;5091016;28;20506;-66
2022/01/19 01:38:07;;;;;;;0.73;0.73;;;;;;;6.77;29.30;99269.78;5089634;28;20114;-66
2022/01/19 01:40:34;;;;;;;0.73;0.73;;;;;;;6.76;29.50;99267.31;5072554;28;20047;-66
2022/01/19 01:43:02;;;;;;;1.10;1.07;;;;;;;7.00;30.22;99280.00;5055861;28;20113;-65
2022/01/19 01:45:31;;;;;;;0.90;0.90;;;;;;;6.62;30.16;99250.13;5056387;28;20050;-66
2022/01/19 01:48:22;;;;;;;0.75;0.75;;;;;;;6.78;29.92;99284.66;5073425;28;20042;-66
2022/01/19 01:53:50;;;;;;;0.73;0.73;;;;;;;6.45;30.53;99285.13;5077902;28;20048;-67
2022/01/19 01:56:16;;;;;;;1.00;1.00;;;;;;;6.59;29.19;99274.16;5072691;28;20402;-66
2022/01/19 01:58:46;;;;;;;2.60;1.10;;;;;;;6.47;30.56;99234.88;5089444;28;20105;-66
2022/01/19 02:01:31;;;;;;;0.70;0.70;;;;;;;6.37;29.43;99244.59;5089132;28;20044;-66
2022/01/19 02:03:59;;;;;;;0.77;0.77;;;;;;;5.80;29.06;99198.00;5089113;28;20066;-66
2022/01/19 02:06:52;;;;;;;0.90;0.90;;;;;;;6.24;29.30;99275.72;5072305;28;20508;-66
2022/01/19 02:09:25;;;;;;;0.63;0.63;;;;;;;6.14;30.51;99280.16;5072208;28;20044;-66
2022/01/19 02:23:21;;;;;;;0.70;0.70;;;;;;;6.48;29.83;99284.84;5074790;28;20492;-66
2022/01/19 02:25:59;;;;;;;0.70;0.70;;;;;;;6.61;28.76;99282.75;5089161;28;20044;-66
2022/01/19 02:41:52;;;;;;;0.77;0.77;;;;;;;6.02;29.55;99274.19;5057666;28;20515;-66
2022/01/19 02:49:45;;;;;;;0.90;0.90;;;;;;;6.28;30.02;99279.72;5088251;28;20098;-66
2022/01/19 02:52:11;;;;;;;0.70;0.70;;;;;;;6.35;30.23;99321.22;5088283;28;20040;-66
2022/01/19 02:54:37;;;;;;;0.70;0.70;;;;;;;6.36;30.02;99327.34;5071777;28;20048;-66
2022/01/19 02:57:03;;;;;;;0.83;0.83;;;;;;;6.25;29.74;99299.31;5089949;28;20091;-67
2022/01/19 03:10:10;;;;;;;0.70;0.70;;;;;;;6.34;30.27;99302.91;5057063;28;20060;-65
2022/01/19 03:12:36;;;;;;;0.73;0.73;;;;;;;6.49;29.94;99327.88;5087947;28;20131;-66
2022/01/19 03:15:03;;;;;;;0.90;0.90;;;;;;;6.79;30.33;99325.06;5071211;28;20059;-65
2022/01/19 03:17:29;;;;;;;0.80;0.80;;;;;;;6.35;29.82;99289.56;5054325;28;20036;-66
2022/01/19 03:19:54;;;;;;;1.00;0.90;;;;;;;6.42;30.51;99288.06;5089797;28;20116;-68
2022/01/19 03:22:27;;;;;;;0.93;0.93;;;;;;;6.69;30.41;99313.69;5088570;28;20056;-65
2022/01/19 03:24:54;;;;;;;1.07;1.07;;;;;;;6.60;29.85;99325.94;5072754;28;20060;-66
2022/01/19 03:27:19;;;;;;;0.80;0.80;;;;;;;6.61;30.52;99321.50;5088177;28;20104;-66
2022/01/19 03:29:52;;;;;;;0.77;0.77;;;;;;;6.72;29.13;99292.28;5088082;28;20048;-67
2022/01/19 03:32:18;;;;;;;0.80;0.80;;;;;;;6.61;30.05;99322.31;5072432;28;20468;-66
2022/01/19 03:34:44;;;;;;;0.73;0.73;;;;;;;6.58;29.76;99306.75;5092009;28;20123;-66
2022/01/19 03:37:11;;;;;;;0.80;0.80;;;;;;;6.54;29.82;99299.28;5091669;28;20794;-66
2022/01/19 03:39:38;;;;;;;0.77;0.77;;;;;;;6.57;29.57;99305.13;5074573;28;20039;-66
2022/01/19 03:42:04;;;;;;;0.77;0.77;;;;;;;6.72;29.30;99308.97;5091367;28;20040;-67
2022/01/19 03:44:30;;;;;;;0.83;0.83;;;;;;;6.59;30.08;99297.91;5091286;28;20089;-66
2022/01/19 03:46:59;;;;;;;0.90;0.90;;;;;;;6.54;30.63;99305.41;5091635;28;20047;-67
2022/01/19 03:49:27;;;;;;;0.67;0.67;;;;;;;6.88;29.72;99298.66;5075355;28;20102;-69
2022/01/19 03:51:58;;;;;;;0.80;0.80;;;;;;;7.08;28.83;99314.44;5058945;28;20043;-69
2022/01/19 03:54:25;;;;;;;1.00;1.00;;;;;;;6.93;29.89;99310.59;5074826;28;20127;-65
2022/01/19 03:56:51;;;;;;;0.80;0.80;;;;;;;6.68;29.11;99312.03;5057923;28;20035;-67
2022/01/19 03:59:17;;;;;;;0.93;0.93;;;;;;;6.59;29.16;99311.09;5057572;28;20036;-66
2022/01/19 04:01:43;;;;;;;0.80;0.80;;;;;;;6.42;29.70;99311.78;5074078;28;20407;-67
2022/01/19 04:06:54;;;;;;;0.70;0.70;;;;;;;6.28;29.79;99314.84;5091010;28;20040;-66
2022/01/19 04:09:21;;;;;;;0.73;0.73;;;;;;;6.49;29.64;99323.44;5108310;28;20040;-66
2022/01/19 04:11:47;;;;;;;0.70;0.70;;;;;;;6.32;30.92;99324.13;5091113;28;20044;-67
2022/01/19 04:14:22;;;;;;;0.70;0.70;;;;;;;6.03;29.74;99299.56;5090942;28;20052;-67
2022/01/19 04:16:53;;;;;;;0.97;0.97;;;;;;;6.71;29.33;99312.59;5056966;28;20515;-67
2022/01/19 04:19:53;;;;;;;0.60;0.60;;;;;;;6.43;30.88;99331.06;5073979;28;20509;-64
2022/01/19 04:22:20;;;;;;;1.27;1.17;;;;;;;6.46;30.96;99338.72;5091182;28;20072;-64
2022/01/19 04:24:47;;;;;;;0.70;0.70;;;;;;;6.37;30.86;99319.28;5074077;28;20044;-63
2022/01/19 04:29:49;;;;;;;;;;;;;;;7.02;29.03;99346.69;5093796;28;20091;-64
2022/01/19 04:32:20;;;;;;;0.87;0.87;;;;;;;6.35;29.80;99339.69;5109342;28;19915;-64
2022/01/19 04:34:47;;;;;;;;;;;;;;;6.99;29.73;99341.69;5089531;28;20426;-65
2022/01/19 04:54:19;;;;;;;0.80;0.80;;;;;;;5.79;30.36;99335.16;5072154;28;20523;-64
2022/01/19 05:02:04;;;;;;;0.80;0.80;;;;;;;5.59;30.61;99352.72;5088890;28;20048;-65
2022/01/19 05:04:52;;;;;;;0.70;0.70;;;;;;;5.68;30.72;99345.78;5071227;28;20138;-65
2022/01/19 05:07:54;;;;;;;0.70;0.70;;;;;;;5.52;30.91;99334.94;5086952;28;20592;-65
2022/01/19 05:15:58;;;;;;;0.73;0.73;;;;;;;5.24;30.51;99313.63;5068081;28;20499;-65
2022/01/19 05:18:24;;;;;;;0.70;0.70;;;;;;;5.15;31.06;99322.31;5068705;28;20032;-66
2022/01/19 05:20:50;;;;;;;0.80;0.80;;;;;;;5.03;31.09;99317.25;5087575;28;20047;-65
2022/01/19 05:23:35;;;;;;;0.77;0.77;;;;;;;5.02;30.94;99311.19;5089601;28;20052;-65
2022/01/19 05:26:02;;;;;;;0.60;0.60;;;;;;;4.94;31.35;99308.38;5072058;28;20499;-65
2022/01/19 05:28:37;;;;;;;0.70;0.70;;;;;;;5.03;31.70;99304.09;5105896;28;20040;-64
2022/01/19 05:31:04;;;;;;;0.70;0.70;;;;;;;5.04;31.34;99303.97;5088075;28;20040;-64
2022/01/19 05:33:30;;;;;;;0.60;0.60;;;;;;;4.80;31.56;99295.53;5105443;28;20055;-72
2022/01/19 05:35:56;;;;;;;0.80;0.80;;;;;;;4.75;31.73;99294.28;5088341;28;20040;-67
2022/01/19 05:38:40;;;;;;;0.87;0.87;;;;;;;4.69;31.29;99292.16;5074632;28;20177;-64
2022/01/19 05:41:21;;;;;;;0.70;0.70;;;;;;;4.64;31.52;99289.09;5071093;28;20497;-65
2022/01/19 05:43:47;;;;;;;1.07;1.03;;;;;;;4.80;31.01;99295.53;5088362;28;20210;-64
2022/01/19 05:46:14;;;;;;;0.90;0.90;;;;;;;4.60;31.82;99295.53;5071715;28;20134;-61
2022/01/19 05:48:40;;;;;;;0.93;0.93;;;;;;;4.54;31.21;99298.69;5071132;28;20071;-64
2022/01/19 05:51:06;;;;;;;0.80;0.80;;;;;;;4.46;31.24;99288.00;5088667;28;20488;-63
2022/01/19 05:53:32;;;;;;;0.83;0.83;;;;;;;4.53;31.20;99300.50;5096665;28;20514;-63
2022/01/19 05:56:01;;;;;;;1.00;1.00;;;;;;;4.46;31.08;99290.63;5107783;28;20171;-64
2022/01/19 05:58:29;;;;;;;0.90;0.90;;;;;;;4.47;31.04;99297.56;5091440;28;20494;-61
2022/01/19 06:00:58;;;;;;;0.70;0.70;;;;;;;4.64;31.12;99310.13;5092023;28;20047;-62
2022/01/19 06:03:24;;;;;;;0.90;0.90;;;;;;;4.60;30.74;99304.28;5091329;28;20225;-63
2022/01/19 06:06:22;;;;;;;0.83;0.83;;;;;;;4.45;31.32;99307.34;5063905;28;20109;-63
2022/01/19 06:09:09;;;;;;;1.50;1.40;;;;;;;4.36;31.52;99295.81;5108297;28;20043;-69
2022/01/19 06:11:34;;;;;;;0.87;0.87;;;;;;;4.44;31.59;99292.56;5107811;28;20048;-63
2022/01/19 06:14:02;;;;;;;0.60;0.60;;;;;;;4.39;31.30;99271.06;5107815;28;20035;-63
2022/01/19 06:16:28;;;;;;;0.80;0.80;;;;;;;4.52;31.30;99269.09;5091349;28;20080;-64
2022/01/19 06:18:54;;;;;;;0.80;0.80;;;;;;;4.51;31.01;99284.03;5074527;28;20128;-65
2022/01/19 06:21:22;;;;;;;0.83;0.83;;;;;;;4.51;30.75;99283.19;5091210;28;20048;-64
2022/01/19 06:23:49;;;;;;;1.07;1.07;;;;;;;4.40;30.47;99270.94;5107742;28;20043;-70
2022/01/19 06:26:19;;;;;;;0.83;0.83;;;;;;;4.23;30.46;99252.28;5091604;28;20502;-64
2022/01/19 06:28:45;;;;;;;0.80;0.80;;;;;;;4.39;30.68;99300.81;5091151;28;20036;-64
2022/01/19 06:31:10;;;;;;;0.80;0.80;;;;;;;4.44;31.09;99293.41;5107984;28;20039;-70
2022/01/19 06:33:37;;;;;;;0.73;0.73;;;;;;;4.46;30.64;99307.22;5107681;28;20051;-64
2022/01/19 06:36:04;;;;;;;0.77;0.77;;;;;;;4.69;30.72;99292.97;5107856;28;20043;-65
2022/01/19 06:38:47;;;;;;;0.70;0.70;;;;;;;4.49;30.78;99293.81;5093043;28;20035;-66
2022/01/19 06:41:41;;;;;;;0.70;0.70;;;;;;;4.57;30.53;99299.28;5101374;28;20080;-65
2022/01/19 06:44:09;;;;;;;0.73;0.73;;;;;;;4.61;30.59;99299.88;5107372;28;20491;-64
2022/01/19 06:46:35;;;;;;;1.10;1.00;;;;;;;4.60;30.86;99306.91;5107886;28;20126;-65
2022/01/19 06:49:00;;;;;;;1.00;1.00;;;;;;;4.66;30.50;99302.91;5091251;28;20540;-66
2022/01/19 06:51:27;;;;;;;1.00;1.00;;;;;;;4.45;30.06;99260.88;5090426;28;20492;-65
2022/01/19 06:53:58;;;;;;;0.80;0.80;;;;;;;4.51;30.65;99267.41;5075870;28;20100;-65
2022/01/19 06:56:36;;;;;;;1.10;1.10;;;;;;;4.84;30.12;99298.75;5091719;28;20047;-64
2022/01/19 06:59:19;;;;;;;0.83;0.83;;;;;;;4.92;30.55;99305.03;5093611;28;20472;-65
2022/01/19 07:02:18;;;;;;;4.93;1.20;;;;;;;5.48;30.43;99300.13;5062146;28;20415;-64
2022/01/19 07:04:49;;;;;;;1.07;1.07;;;;;;;5.86;30.36;99281.78;5109011;28;20041;-64
2022/01/19 07:07:23;;;;;;;1.20;1.10;;;;;;;6.70;30.21;99281.88;5108995;28;20043;-64
2022/01/19 07:10:00;;;;;;;0.90;0.90;;;;;;;7.94;28.77;99291.91;5094961;28;20043;-65
2022/01/19 07:12:26;;;;;;;1.50;1.40;;;;;;;8.90;28.47;99267.25;5111357;28;20204;-65
2022/01/19 07:14:53;;;;;;;0.90;0.90;;;;;;;10.20;27.41;99297.59;5111425;28;20147;-65
2022/01/19 07:17:18;;;;;;;1.10;1.00;;;;;;;11.11;26.34;99291.91;5094159;28;20522;-65
2022/01/19 07:19:44;;;;;;;0.90;0.90;;;;;;;11.88;25.03;99283.16;5094698;28;20380;-65
2022/01/19 07:22:11;;;;;;;1.08;0.98;;;;;;;12.39;25.71;99247.88;5111517;28;20044;-68
2022/01/19 07:24:38;;;;;;;1.67;1.10;;;;;;;13.26;25.62;99271.19;5094310;28;20039;-64
2022/01/19 07:27:04;;;;;;;1.45;1.10;;;;;;;13.58;24.39;99278.81;5094680;28;20047;-66
2022/01/19 07:29:31;;;;;;;0.90;0.90;;;;;;;13.70;24.22;99277.31;5111284;28;20056;-65
2022/01/19 07:31:59;;;;;;;0.70;0.70;;;;;;;14.02;24.20;99252.88;5078514;28;20036;-65
2022/01/19 07:34:29;;;;;;;0.90;0.90;;;;;;;14.35;23.74;99250.56;5094253;28;20529;-64
2022/01/19 07:36:55;;;;;;;0.80;0.80;;;;;;;14.80;23.34;99247.47;5094377;28;20137;-66
2022/01/19 07:39:23;;;;;;;1.27;1.00;;;;;;;15.50;23.07;99264.19;5093529;28;20503;-66
2022/01/19 07:41:53;;;;;;;4.55;2.92;;;;;;;15.29;23.70;99232.13;5094301;28;20119;-65
2022/01/19 07:44:45;;;;;;;1.92;1.25;;;;;;;15.93;22.40;99262.94;5110772;28;20138;-65
2022/01/19 07:47:40;;;;;;;0.80;0.80;;;;;;;16.28;21.74;99234.16;5043593;28;20048;-65
2022/01/19 07:50:15;;;;;;;1.13;1.02;;;;;;;16.80;22.15;99242.28;5095206;28;20047;-65
2022/01/19 07:52:59;;;;;;;0.63;0.63;;;;;;;17.14;21.87;99257.28;5094025;28;20464;-64
2022/01/19 07:55:49;;;;;;;1.02;0.88;;;;;;;17.26;21.22;99220.72;5110735;28;20427;-65
2022/01/19 07:58:37;;;;;;;1.30;1.05;;;;;;;17.74;20.93;99244.34;5110677;28;20495;-65
2022/01/19 08:01:11;;;;;;;1.65;1.13;;;;;;;18.11;20.86;99243.53;5110312;28;20047;-65
2022/01/19 08:03:45;;;;;;;2.45;1.15;;;;;;;18.43;20.02;99233.66;5094795;28;20047;-66
2022/01/19 08:06:18;;;;;;;6.93;2.50;;;;;;;18.56;19.93;99227.34;5094739;28;20035;-65
2022/01/19 08:08:46;;;;;;;5.35;2.15;;;;;;;18.85;19.64;99219.41;5110301;28;20044;-65
2022/01/19 08:11:12;;;;;;;4.93;1.85;;;;;;;18.63;19.40;99185.91;5110097;28;20134;-65
2022/01/19 08:13:42;;;;;;;6.40;2.17;;;;;;;18.93;19.28;99221.84;5110203;28;20084;-66
2022/01/19 08:16:09;;;;;;;5.07;2.03;;;;;;;18.99;18.71;99196.72;5093525;28;20139;-64
2022/01/19 08:18:35;;;;;;;4.78;1.70;;;;;;;19.33;19.11;99215.03;5076914;28;20050;-71
2022/01/19 08:21:01;;;;;;;4.55;1.75;;;;;;;19.54;18.86;99217.25;5094171;28;20047;-67
2022/01/19 08:23:33;;;;;;;6.70;2.20;;;;;;;19.84;19.33;99218.16;5111020;28;20039;-66
2022/01/19 08:26:01;;;;;;;8.77;3.40;;;;;;;19.89;18.38;99210.22;5112039;28;20495;-67
2022/01/19 08:28:27;;;;;;;6.35;2.22;;;;;;;19.98;18.31;99216.09;5110691;28;20043;-64
2022/01/19 08:30:54;;;;;;;8.18;2.95;;;;;;;20.25;18.78;99211.19;5110181;28;20039;-65
2022/01/19 08:33:40;;;;;;;5.95;2.90;;;;;;;20.47;18.41;99220.38;5110558;28;20040;-66
2022/01/19 08:36:06;;;;;;;7.32;3.08;;;;;;;20.52;18.64;99215.09;5109034;28;20071;-66
2022/01/19 08:38:50;;;;;;;5.05;3.00;;;;;;;20.67;18.50;99212.78;5092589;28;20584;-66
2022/01/19 08:41:31;;;;;;;6.63;3.03;;;;;;;21.04;18.55;99212.38;5106394;28;20051;-66
2022/01/19 08:43:58;;;;;;;6.60;3.53;;;;;;;21.12;18.63;99219.28;5075030;28;20067;-65
2022/01/19 08:46:24;;;;;;;7.28;3.25;;;;;;;20.93;18.44;99194.25;5091703;28;20118;-64
2022/01/19 08:49:11;;;;;;;4.45;2.97;;;;;;;21.39;18.71;99215.84;5061416;28;20050;-66
2022/01/19 08:51:57;;;;;;;5.07;3.08;;;;;;;21.14;18.13;99219.88;5106974;28;20051;-64
2022/01/19 08:54:27;;;;;;;5.13;2.42;;;;;;;21.20;17.72;99208.94;5075209;28;20023;-65
2022/01/19 08:57:01;;;;;;;5.72;2.75;;;;;;;21.50;17.74;99200.69;5075730;28;20044;-65
2022/01/19 08:59:28;;;;;;;5.22;3.00;;;;;;;21.37;17.45;99204.47;5092002;28;20050;-64
2022/01/19 09:01:54;;;;;;;10.10;3.53;;;;;;;21.02;17.58;99203.69;5110964;28;20043;-65
2022/01/19 09:04:20;;;;;;;4.78;2.63;;;;;;;21.44;17.91;99194.34;5091551;28;20092;-65
2022/01/19 09:06:46;;;;;;;6.65;3.30;;;;;;;21.33;18.36;99197.06;5089476;28;20504;-66
2022/01/19 09:09:12;;;;;;;5.45;2.85;;;;;;;21.42;17.16;99198.34;5108617;28;20036;-65
2022/01/19 09:11:38;;;;;;;4.35;2.83;;;;;;;21.67;16.95;99196.16;5073841;28;20043;-65
2022/01/19 09:14:06;;;;;;;8.40;3.17;;;;;;;21.01;17.65;99183.13;5108574;28;20126;-65
2022/01/19 09:16:33;;;;;;;6.32;3.55;;;;;;;20.74;18.77;99159.53;5109766;28;20104;-65
2022/01/19 09:19:00;;;;;;;10.07;4.95;;;;;;;20.43;18.14;99184.97;5090939;28;20032;-65
2022/01/19 09:21:26;;;;;;;8.00;4.05;;;;;;;19.91;16.59;99164.16;5108986;28;20050;-66
2022/01/19 09:23:51;;;;;;;6.88;4.10;;;;;;;20.06;18.60;99162.66;5107932;28;20047;-65
2022/01/19 09:26:17;;;;;;;7.43;3.42;;;;;;;20.35;16.87;99169.09;5108067;28;20435;-65
2022/01/19 09:28:43;;;;;;;6.03;2.85;;;;;;;21.02;16.46;99167.78;5108243;28;20035;-71
2022/01/19 09:31:12;;;;;;;6.18;3.15;;;;;;;21.75;16.67;99179.59;5107094;28;20126;-65
2022/01/19 09:33:38;;;;;;;5.57;3.28;;;;;;;22.40;15.62;99172.66;5107286;28;20122;-65
2022/01/19 09:36:28;;;;;;;4.10;3.35;;;;;;;22.38;15.47;99165.88;5085328;28;20123;-66
2022/01/19 09:38:53;;;;;;;5.20;3.60;;;;;;;21.34;14.17;99179.81;5089826;28;20131;-66
2022/01/19 09:41:19;;;;;;;8.95;4.53;;;;;;;21.16;14.46;99177.25;5088241;28;20150;-65
2022/01/19 09:43:45;;;;;;;7.15;4.10;;;;;;;20.77;15.56;99173.34;5071303;28;20118;-67
2022/01/19 09:46:11;;;;;;;6.75;4.30;;;;;;;20.64;15.30;99175.47;5089865;28;20040;-65
2022/01/19 09:48:37;;;;;;;9.52;4.45;;;;;;;20.73;15.34;99171.34;5088618;28;20096;-64
2022/01/19 09:51:03;;;;;;;6.93;4.20;;;;;;;20.20;14.44;99181.38;5073104;28;20778;-65
2022/01/19 09:53:29;;;;;;;6.60;4.28;;;;;;;19.73;14.97;99156.09;5107345;28;20161;-64
2022/01/19 09:55:55;;;;;;;7.40;4.10;;;;;;;20.00;14.74;99158.19;5089700;28;20036;-66
2022/01/19 09:58:22;;;;;;;6.53;3.83;;;;;;;19.49;14.44;99147.09;5085540;28;20040;-65
2022/01/19 10:00:49;;;;;;;6.38;4.13;;;;;;;19.95;15.34;99168.84;5090239;28;20079;-65
2022/01/19 10:03:22;;;;;;;8.27;4.22;;;;;;;20.14;14.85;99158.88;5108392;28;20043;-65
2022/01/19 10:06:11;;;;;;;8.25;4.20;;;;;;;21.01;13.06;99171.50;5105727;28;20044;-66
2022/01/19 10:08:42;;;;;;;7.15;4.10;;;;;;;20.81;14.16;99171.84;5107753;28;20037;-66
2022/01/19 10:11:16;;;;;;;5.85;3.70;;;;;;;21.64;12.80;99172.31;5109857;28;20042;-65
2022/01/19 10:19:21;;;;;;;6.68;3.30;;;;;;;23.13;11.76;99173.31;5108671;28;20546;-65
2022/01/19 10:22:07;;;;;;;9.13;3.30;;;;;;;22.72;11.18;99181.91;5108173;28;20145;-65
2022/01/19 10:25:04;;;;;;;7.50;3.92;;;;;;;22.26;11.39;99182.19;5108409;28;20073;-65
2022/01/19 10:27:40;;;;;;;7.78;3.80;;;;;;;21.01;11.29;99161.53;5107898;28;20075;-65
2022/01/19 10:30:05;;;;;;;7.10;4.07;;;;;;;20.11;10.73;99178.97;5108460;28;20059;-65
2022/01/19 10:32:37;;;;;;;7.93;4.05;;;;;;;20.12;11.31;99179.81;5109348;28;20507;-65
2022/01/19 10:35:36;;;;;;;7.03;3.83;;;;;;;18.73;12.23;99156.63;5091236;28;20044;-65
2022/01/19 10:38:16;;;;;;;8.38;4.18;;;;;;;17.58;13.01;99163.41;5058182;28;20862;-64
2022/01/19 10:41:02;;;;;;;12.50;4.88;;;;;;;17.71;13.01;99158.00;5109460;28;20112;-65
2022/01/19 10:43:38;;;;;;;11.63;4.93;;;;;;;17.01;13.37;99153.50;5108891;28;20084;-65
2022/01/19 10:46:25;;;;;;;9.55;4.97;;;;;;;15.52;14.14;99144.38;5107949;28;20036;-64
2022/01/19 10:49:05;;;;;;;11.00;5.03;;;;;;;14.49;15.56;99132.09;5091648;28;20043;-64
2022/01/19 10:51:48;;;;;;;9.55;4.53;;;;;;;14.04;15.69;99129.88;5108346;28;20063;-65
2022/01/19 10:54:17;;;;;;;10.00;4.65;;;;;;;14.05;15.63;99139.50;5109562;28;20039;-65
2022/01/19 10:56:45;;;;;;;12.50;5.15;;;;;;;14.65;15.16;99134.47;5109690;28;20066;-64
2022/01/19 10:59:13;;;;;;;9.25;4.80;;;;;;;15.52;14.79;99160.44;5108202;28;20047;-64
2022/01/19 11:01:45;;;;;;;8.65;4.30;;;;;;;16.03;14.18;99156.22;5107568;28;20035;-64
2022/01/19 11:04:27;;;;;;;9.38;4.15;;;;;;;17.24;13.44;99150.31;5107828;28;20130;-64
2022/01/19 11:07:19;;;;;;;7.15;4.05;;;;;;;17.43;13.34;99146.75;5109531;28;20093;-69
2022/01/19 11:09:46;;;;;;;6.50;3.80;;;;;;;16.93;13.27;99121.53;5115943;28;20499;-65
2022/01/19 11:12:18;;;;;;;7.10;3.90;;;;;;;17.31;12.77;99135.88;5090276;28;20047;-66
2022/01/19 11:14:45;;;;;;;5.63;3.50;;;;;;;15.62;13.78;99144.00;5109113;28;20055;-65
2022/01/19 11:17:12;;;;;;;8.52;3.20;;;;;;;14.70;14.53;99135.53;5108439;28;20046;-64
2022/01/19 11:19:40;;;;;;;11.55;3.88;;;;;;;13.66;15.98;99136.44;5109776;28;20495;-71
2022/01/19 11:22:14;;;;;;;7.35;3.80;;;;;;;12.26;16.92;99125.16;5108188;28;20384;-65
2022/01/19 11:25:01;;;;;;;6.97;3.70;;;;;;;11.75;17.64;99118.78;5090781;28;20092;-64
2022/01/19 11:27:28;;;;;;;5.57;3.60;;;;;;;10.33;18.92;99122.75;5107779;28;20112;-64
2022/01/19 11:30:15;;;;;;;8.03;3.60;;;;;;;10.34;19.37;99123.56;5104713;28;20047;-65
2022/01/19 11:32:43;;;;;;;8.53;4.03;;;;;;;9.47;19.80;99126.06;5091213;28;20047;-65
2022/01/19 11:35:11;;;;;;;5.53;3.30;;;;;;;8.97;20.54;99119.94;5105354;28;20044;-70
2022/01/19 11:37:38;;;;;;;7.60;3.40;;;;;;;8.44;21.18;99122.88;5106984;28;20135;-65
2022/01/19 11:40:07;;;;;;;4.67;3.03;;;;;;;8.37;21.27;99109.44;5108984;28;20048;-65
2022/01/19 11:42:33;;;;;;;5.77;3.40;;;;;;;8.22;21.73;99120.72;5107759;28;20041;-64
2022/01/19 11:44:59;;;;;;;7.03;3.87;;;;;;;7.57;22.23;99078.91;5108202;28;20067;-65
2022/01/19 11:47:29;;;;;;;8.50;3.70;;;;;;;8.44;22.34;99101.72;5108014;28;20058;-65
2022/01/19 11:49:59;;;;;;;6.03;4.07;;;;;;;8.43;22.13;99098.22;5090902;28;20167;-65
2022/01/19 11:52:47;;;;;;;6.67;3.87;;;;;;;8.28;22.34;99101.59;5090254;28;20292;-68
2022/01/19 11:55:24;;;;;;;8.77;4.30;;;;;;;8.14;22.68;99108.28;5098506;28;20503;-66
2022/01/19 11:58:11;;;;;;;9.90;4.43;;;;;;;7.64;22.71;99085.25;5110647;28;20048;-66
2022/01/19 12:00:38;;;;;;;10.80;4.57;;;;;;;7.07;24.08;99106.84;5111537;28;20130;-67
2022/01/19 12:03:16;;;;;;;6.17;3.53;;;;;;;7.74;23.50;99104.50;5077193;28;20052;-65
2022/01/19 12:05:42;;;;;;;8.93;3.87;;;;;;;6.87;23.84;99104.31;5100409;28;20043;-67
2022/01/19 12:08:30;;;;;;;8.00;4.27;;;;;;;7.59;23.32;99096.28;5107571;28;20048;-65
2022/01/19 12:11:10;;;;;;;10.17;4.30;;;;;;;7.27;23.82;99098.66;5104591;28;20048;-66
2022/01/19 12:16:25;;;;;;;9.77;4.60;;;;;;;6.44;24.60;99090.09;5111808;28;20047;-65
2022/01/19 12:18:56;;;;;;;12.27;4.20;;;;;;;6.70;24.85;99078.69;5110359;28;20052;-65
2022/01/19 12:21:31;;;;;;;;;;;;;;;7.40;24.15;99092.97;5110448;28;20040;-65
2022/01/19 12:24:12;;;;;;;10.07;3.97;;;;;;;6.80;24.75;99060.19;5109505;28;19919;-66
2022/01/19 12:26:50;;;;;;;8.50;4.00;;;;;;;6.66;25.25;99093.19;5109713;28;20048;-69
2022/01/19 12:29:36;;;;;;;6.67;3.90;;;;;;;7.13;24.88;99078.03;5109558;28;20552;-68
2022/01/19 12:32:10;;;;;;;6.13;3.47;;;;;;;6.45;25.57;99097.03;5109622;28;20036;-66
2022/01/19 12:34:46;;;;;;;6.13;3.50;;;;;;;6.08;26.06;99068.03;5092962;28;20044;-65
2022/01/19 12:37:14;;;;;;;7.43;3.50;;;;;;;6.21;25.80;99070.34;5111823;28;20047;-65
2022/01/19 12:39:44;;;;;;;7.53;3.43;;;;;;;5.97;25.97;99048.91;5093639;28;20035;-65
2022/01/19 12:42:16;;;;;;;6.20;3.27;;;;;;;5.61;26.08;99071.56;5109501;28;20530;-65
2022/01/19 12:44:45;;;;;;;10.83;4.70;;;;;;;5.56;26.29;99065.88;5090827;28;20079;-65
2022/01/19 12:47:28;;;;;;;10.43;3.70;;;;;;;6.61;25.52;99076.94;5107744;28;20126;-67
2022/01/19 12:50:04;;;;;;;16.13;3.60;;;;;;;6.02;25.93;99063.31;5107533;28;20053;-66
2022/01/19 12:52:32;;;;;;;10.40;4.00;;;;;;;6.01;25.99;99037.91;5073665;28;20103;-65
2022/01/19 12:55:12;;;;;;;5.50;3.30;;;;;;;6.14;26.27;99064.81;5057352;28;20146;-65
2022/01/19 12:57:38;;;;;;;7.27;3.30;;;;;;;5.70;26.27;99064.59;5109320;28;20040;-66
2022/01/19 13:00:07;;;;;;;11.20;3.83;;;;;;;6.09;26.25;99071.50;5111510;28;20036;-68
2022/01/19 13:02:34;;;;;;;7.77;3.57;;;;;;;5.66;26.51;99056.16;5111096;28;20578;-67
2022/01/19 13:05:17;;;;;;;9.97;3.63;;;;;;;6.15;26.46;99060.38;5090899;28;20119;-70
2022/01/19 13:07:46;;;;;;;6.60;3.70;;;;;;;5.70;26.55;99049.66;5092609;28;20043;-67
2022/01/19 13:13:04;;;;;;;13.73;3.67;;;;;;;5.52;26.91;99076.84;5092141;28;20437;-67
2022/01/19 13:15:46;;;;;;;9.97;3.90;;;;;;;6.15;26.49;99069.09;5086962;28;21137;-67
2022/01/19 13:18:14;;;;;;;7.40;3.80;;;;;;;5.82;26.80;99055.59;5107969;28;20043;-67
2022/01/19 13:20:54;;;;;;;5.30;3.50;;;;;;;5.83;26.51;99028.25;5089326;28;20059;-67
2022/01/19 13:23:21;;;;;;;7.53;3.23;;;;;;;5.72;26.85;99068.75;5071867;28;20054;-69
2022/01/19 13:25:57;;;;;;;10.77;4.10;;;;;;;5.99;26.65;99065.41;5038869;28;20044;-69
2022/01/19 13:28:30;;;;;;;12.60;4.33;;;;;;;5.88;26.89;99053.22;5088611;28;20093;-67